createdAt,value
2022-07-28T00:00:15.922Z,101264.84
2022-07-28T00:01:18.474Z,101289.78
2022-07-28T00:02:21.938Z,101291.47
2022-07-28T00:03:24.121Z,101289.50
2022-07-28T00:04:25.991Z,101300.63
2022-07-28T00:05:28.175Z,101276.22
2022-07-28T00:06:30.013Z,101275.84
2022-07-28T00:07:32.699Z,101303.34
2022-07-28T00:08:34.528Z,101292.94
2022-07-28T00:09:36.309Z,101302.50
2022-07-28T00:10:38.088Z,101286.88
2022-07-28T00:11:54.404Z,101312.47
2022-07-28T00:12:56.988Z,101289.56
2022-07-28T00:13:58.844Z,101281.63
2022-07-28T00:15:00.931Z,101305.75
2022-07-28T00:16:03.162Z,101312.69
2022-07-28T00:17:05.051Z,101296.19
2022-07-28T00:18:06.900Z,101303.28
2022-07-28T00:19:08.989Z,101307.78
2022-07-28T00:20:11.516Z,101301.22
2022-07-28T00:21:13.821Z,101314.41
2022-07-28T00:22:15.637Z,101293.19
2022-07-28T00:23:17.439Z,101315.44
2022-07-28T00:24:19.324Z,101314.13
2022-07-28T00:25:21.247Z,101334.69
2022-07-28T00:26:23.595Z,101329.63
2022-07-28T00:27:25.665Z,101329.47
2022-07-28T00:28:27.529Z,101316.16
2022-07-28T00:29:49.126Z,101317.38
2022-07-28T00:30:52.016Z,101332.63
2022-07-28T00:31:54.321Z,101309.72
2022-07-28T00:32:56.240Z,101314.84
2022-07-28T00:33:58.328Z,101336.06
2022-07-28T00:35:00.714Z,101322.81
2022-07-28T00:36:04.531Z,101330.34
2022-07-28T00:37:08.296Z,101332.69
2022-07-28T00:38:15.459Z,101334.09
2022-07-28T00:39:17.315Z,101340.38
2022-07-28T00:40:19.192Z,101313.88
2022-07-28T00:41:21.248Z,101316.75
2022-07-28T00:42:23.649Z,101346.59
2022-07-28T00:43:25.454Z,101320.63
2022-07-28T00:44:27.515Z,101333.63
2022-07-28T00:45:29.512Z,101342.78
2022-07-28T00:46:31.534Z,101323.03
2022-07-28T00:47:34.075Z,101324.41
2022-07-28T00:48:40.213Z,101342.13
2022-07-28T00:49:45.362Z,101340.25
2022-07-28T00:50:47.406Z,101327.44
2022-07-28T00:51:49.825Z,101339.56
2022-07-28T00:52:52.004Z,101355.28
2022-07-28T00:53:55.548Z,101349.03
2022-07-28T00:54:58.899Z,101338.91
2022-07-28T00:56:05.337Z,101337.09
2022-07-28T00:57:08.416Z,101354.44
2022-07-28T00:58:10.418Z,101354.78
2022-07-28T00:59:12.327Z,101341.78
2022-07-28T01:00:14.635Z,101334.59
2022-07-28T01:01:20.206Z,101336.44
2022-07-28T01:02:22.442Z,101344.69
2022-07-28T01:03:25.812Z,101329.00
2022-07-28T01:04:28.263Z,101326.13
2022-07-28T01:05:52.387Z,101321.78
2022-07-28T01:07:19.166Z,101369.50
2022-07-28T01:08:45.215Z,101359.13
2022-07-28T01:10:05.819Z,101358.59
2022-07-28T01:11:18.718Z,101365.56
2022-07-28T01:12:45.084Z,101363.22
2022-07-28T01:14:08.987Z,101361.47
2022-07-28T01:15:30.013Z,101352.09
2022-07-28T01:16:32.355Z,101358.16
2022-07-28T01:18:05.932Z,101368.28
2022-07-28T01:19:36.207Z,101344.31
2022-07-28T01:20:44.200Z,101351.78
2022-07-28T01:21:48.026Z,101354.66
2022-07-28T01:23:31.301Z,101372.00
2022-07-28T01:24:41.927Z,101370.31
2022-07-28T01:26:06.768Z,101366.94
2022-07-28T01:27:16.228Z,101339.47
2022-07-28T01:28:26.761Z,101363.09
2022-07-28T01:29:37.125Z,101366.00
2022-07-28T01:30:43.511Z,101360.44
2022-07-28T01:31:51.806Z,101358.41
2022-07-28T01:33:00.020Z,101321.47
2022-07-28T01:34:17.222Z,101356.91
2022-07-28T01:35:26.979Z,101345.78
2022-07-28T01:36:33.393Z,101339.38
2022-07-28T01:37:39.322Z,101347.28
2022-07-28T01:38:43.049Z,101335.00
2022-07-28T01:39:47.151Z,101347.28
2022-07-28T01:40:51.797Z,101351.03
2022-07-28T01:41:56.170Z,101339.91
2022-07-28T01:43:02.017Z,101347.16
2022-07-28T01:44:08.441Z,101371.94
2022-07-28T01:45:12.537Z,101351.44
2022-07-28T01:46:15.970Z,101367.44
2022-07-28T01:47:20.220Z,101370.81
2022-07-28T01:48:24.206Z,101355.47
2022-07-28T01:49:28.645Z,101382.13
2022-07-28T01:50:32.012Z,101327.66
2022-07-28T01:51:36.051Z,101377.72
2022-07-28T01:52:40.775Z,101380.44
2022-07-28T01:53:45.146Z,101379.59
2022-07-28T01:54:48.138Z,101374.06
2022-07-28T01:55:53.374Z,101382.31
2022-07-28T01:56:57.434Z,101368.50
2022-07-28T01:58:01.572Z,101368.81
2022-07-28T01:59:06.735Z,101365.78
2022-07-28T02:00:11.041Z,101360.22
2022-07-28T02:01:18.134Z,101377.63
2022-07-28T02:02:21.499Z,101377.13
2022-07-28T02:03:25.780Z,101389.28
2022-07-28T02:04:29.275Z,101387.59
2022-07-28T02:05:33.419Z,101393.31
2022-07-28T02:06:35.885Z,101395.50
2022-07-28T02:07:39.991Z,101393.50
2022-07-28T02:08:42.434Z,101386.91
2022-07-28T02:09:46.101Z,101401.78
2022-07-28T02:11:09.176Z,101375.78
2022-07-28T02:12:15.197Z,101393.81
2022-07-28T02:13:17.116Z,101399.25
2022-07-28T02:14:24.108Z,101381.19
2022-07-28T02:15:28.005Z,101392.50
2022-07-28T02:16:31.877Z,101401.63
2022-07-28T02:17:35.471Z,101393.72
2022-07-28T02:18:39.377Z,101387.81
2022-07-28T02:19:43.401Z,101409.03
2022-07-28T02:20:45.556Z,101394.06
2022-07-28T02:21:49.848Z,101401.94
2022-07-28T02:22:54.074Z,101404.66
2022-07-28T02:23:56.184Z,101390.34
2022-07-28T02:24:58.618Z,101407.56
2022-07-28T02:26:03.334Z,101404.53
2022-07-28T02:27:11.828Z,101390.03
2022-07-28T02:28:15.067Z,101412.78
2022-07-28T02:29:49.310Z,101406.69
2022-07-28T02:30:51.059Z,101373.97
2022-07-28T02:31:57.455Z,101356.13
2022-07-28T02:33:07.534Z,101382.75
2022-07-28T02:34:13.446Z,101410.94
2022-07-28T02:35:32.234Z,101393.88
2022-07-28T02:36:48.423Z,101397.25
2022-07-28T02:37:55.667Z,101413.44
2022-07-28T02:39:06.315Z,101417.16
2022-07-28T02:40:14.484Z,101420.88
2022-07-28T02:41:25.051Z,101425.47
2022-07-28T02:42:30.874Z,101414.50
2022-07-28T02:43:49.017Z,101398.66
2022-07-28T02:45:01.969Z,101424.25
2022-07-28T02:46:10.478Z,101404.03
2022-07-28T02:47:22.771Z,101405.25
2022-07-28T02:48:29.796Z,101428.34
2022-07-28T02:49:34.476Z,101417.88
2022-07-28T02:50:41.183Z,101392.94
2022-07-28T02:51:45.575Z,101392.09
2022-07-28T02:52:49.150Z,101427.56
2022-07-28T02:53:52.207Z,101426.34
2022-07-28T02:54:56.461Z,101431.75
2022-07-28T02:55:58.979Z,101415.91
2022-07-28T02:57:02.209Z,101414.75
2022-07-28T02:58:05.473Z,101414.59
2022-07-28T02:59:10.932Z,101424.72
2022-07-28T03:00:13.392Z,101423.88
2022-07-28T03:01:19.397Z,101411.88
2022-07-28T03:02:22.328Z,101420.47
2022-07-28T03:03:25.224Z,101418.66
2022-07-28T03:04:46.122Z,101441.09
2022-07-28T03:05:48.294Z,101421.16
2022-07-28T03:06:50.135Z,101433.13
2022-07-28T03:07:56.823Z,101426.06
2022-07-28T03:08:58.770Z,101438.06
2022-07-28T03:10:00.984Z,101425.06
2022-07-28T03:11:14.093Z,101429.97
2022-07-28T03:12:15.963Z,101426.75
2022-07-28T03:13:17.811Z,101433.19
2022-07-28T03:14:19.724Z,101427.44
2022-07-28T03:15:21.575Z,101440.94
2022-07-28T03:16:23.420Z,101437.56
2022-07-28T03:17:25.553Z,101405.19
2022-07-28T03:18:29.142Z,101430.81
2022-07-28T03:19:31.740Z,101443.47
2022-07-28T03:20:34.940Z,101444.31
2022-07-28T03:21:37.766Z,101411.63
2022-07-28T03:22:40.302Z,101440.78
2022-07-28T03:23:45.552Z,101446.34
2022-07-28T03:24:50.986Z,101448.03
2022-07-28T03:25:57.306Z,101432.88
2022-07-28T03:27:28.740Z,101447.69
2022-07-28T03:28:31.787Z,101433.19
2022-07-28T03:29:35.604Z,101450.38
2022-07-28T03:30:43.499Z,101418.50
2022-07-28T03:31:48.397Z,101450.38
2022-07-28T03:32:55.224Z,101414.97
2022-07-28T03:33:57.667Z,101456.00
2022-07-28T03:34:59.937Z,101435.56
2022-07-28T03:36:06.983Z,101423.25
2022-07-28T03:37:12.532Z,101434.91
2022-07-28T03:38:18.091Z,101424.78
2022-07-28T03:39:23.988Z,101409.78
2022-07-28T03:40:29.731Z,101446.88
2022-07-28T03:41:33.814Z,101448.22
2022-07-28T03:42:37.213Z,101442.00
2022-07-28T03:43:40.211Z,101444.69
2022-07-28T03:44:42.858Z,101441.84
2022-07-28T03:45:47.862Z,101451.25
2022-07-28T03:46:50.155Z,101409.56
2022-07-28T03:47:57.505Z,101432.03
2022-07-28T03:48:59.741Z,101438.44
2022-07-28T03:50:01.648Z,101446.19
2022-07-28T03:51:03.743Z,101425.50
2022-07-28T03:52:06.299Z,101428.84
2022-07-28T03:53:21.159Z,101428.84
2022-07-28T03:54:23.193Z,101435.25
2022-07-28T03:55:26.280Z,101450.28
2022-07-28T03:56:28.312Z,101447.09
2022-07-28T03:57:30.297Z,101456.66
2022-07-28T03:58:32.050Z,101435.28
2022-07-28T03:59:34.291Z,101448.78
2022-07-28T04:00:36.720Z,101446.22
2022-07-28T04:01:38.791Z,101444.06
2022-07-28T04:02:44.050Z,101454.34
2022-07-28T04:03:46.169Z,101453.00
2022-07-28T04:04:48.048Z,101448.09
2022-07-28T04:05:50.010Z,101472.41
2022-07-28T04:06:51.850Z,101452.66
2022-07-28T04:07:53.639Z,101445.91
2022-07-28T04:08:55.522Z,101438.66
2022-07-28T04:09:57.436Z,101459.41
2022-07-28T04:10:59.230Z,101449.47
2022-07-28T04:12:01.322Z,101454.53
2022-07-28T04:13:03.464Z,101453.19
2022-07-28T04:14:05.272Z,101451.50
2022-07-28T04:15:14.378Z,101457.41
2022-07-28T04:16:16.295Z,101467.84
2022-07-28T04:17:18.099Z,101471.41
2022-07-28T04:18:19.900Z,101472.78
2022-07-28T04:19:21.630Z,101459.75
2022-07-28T04:20:24.917Z,101473.59
2022-07-28T04:21:26.803Z,101466.03
2022-07-28T04:22:28.551Z,101475.28
2022-07-28T04:23:31.050Z,101467.38
2022-07-28T04:24:32.903Z,101485.28
2022-07-28T04:25:34.898Z,101471.91
2022-07-28T04:26:37.056Z,101463.66
2022-07-28T04:27:40.212Z,101479.88
2022-07-28T04:28:42.095Z,101467.56
2022-07-28T04:29:44.058Z,101451.16
2022-07-28T04:30:46.238Z,101483.91
2022-07-28T04:31:48.086Z,101479.19
2022-07-28T04:32:51.692Z,101485.41
2022-07-28T04:33:53.504Z,101486.25
2022-07-28T04:34:55.477Z,101460.97
2022-07-28T04:35:57.432Z,101467.38
2022-07-28T04:36:59.606Z,101465.69
2022-07-28T04:38:01.630Z,101460.44
2022-07-28T04:39:03.654Z,101476.47
2022-07-28T04:40:07.460Z,101495.38
2022-07-28T04:41:09.467Z,101456.69
2022-07-28T04:42:11.714Z,101476.47
2022-07-28T04:43:14.173Z,101473.75
2022-07-28T04:44:17.633Z,101482.69
2022-07-28T04:45:20.056Z,101494.00
2022-07-28T04:46:21.886Z,101478.00
2022-07-28T04:47:24.724Z,101480.50
2022-07-28T04:48:26.562Z,101484.53
2022-07-28T04:49:28.468Z,101484.06
2022-07-28T04:50:32.364Z,101489.28
2022-07-28T04:51:34.150Z,101494.34
2022-07-28T04:52:37.177Z,101490.97
2022-07-28T04:53:38.990Z,101496.03
2022-07-28T04:54:40.765Z,101500.94
2022-07-28T04:55:42.599Z,101475.59
2022-07-28T04:56:44.954Z,101466.66
2022-07-28T04:57:47.068Z,101502.97
2022-07-28T04:58:49.197Z,101505.81
2022-07-28T04:59:53.948Z,101485.22
2022-07-28T05:00:58.591Z,101487.44
2022-07-28T05:02:00.454Z,101479.00
2022-07-28T05:03:03.710Z,101480.50
2022-07-28T05:04:06.247Z,101479.84
2022-07-28T05:05:08.793Z,101510.03
2022-07-28T05:06:10.652Z,101497.38
2022-07-28T05:07:12.978Z,101490.63
2022-07-28T05:08:14.831Z,101494.84
2022-07-28T05:09:17.060Z,101496.91
2022-07-28T05:10:18.874Z,101512.59
2022-07-28T05:11:20.634Z,101514.59
2022-07-28T05:12:22.534Z,101491.13
2022-07-28T05:13:28.978Z,101519.34
2022-07-28T05:14:35.175Z,101495.84
2022-07-28T05:15:37.176Z,101488.22
2022-07-28T05:16:39.256Z,101510.34
2022-07-28T05:17:42.448Z,101492.63
2022-07-28T05:18:44.823Z,101516.63
2022-07-28T05:19:46.655Z,101517.59
2022-07-28T05:20:48.572Z,101511.22
2022-07-28T05:21:50.477Z,101506.25
2022-07-28T05:22:53.805Z,101522.16
2022-07-28T05:23:55.725Z,101528.88
2022-07-28T05:24:57.672Z,101524.97
2022-07-28T05:25:59.788Z,101492.56
2022-07-28T05:27:01.578Z,101511.13
2022-07-28T05:28:03.731Z,101524.75
2022-07-28T05:29:05.980Z,101533.38
2022-07-28T05:30:08.686Z,101529.47
2022-07-28T05:31:10.658Z,101526.94
2022-07-28T05:32:16.440Z,101516.47
2022-07-28T05:33:19.439Z,101537.19
2022-07-28T05:34:21.538Z,101527.56
2022-07-28T05:35:23.567Z,101511.66
2022-07-28T05:36:25.443Z,101531.91
2022-07-28T05:37:27.537Z,101516.00
2022-07-28T05:38:30.548Z,101535.59
2022-07-28T05:39:33.158Z,101532.72
2022-07-28T05:40:35.016Z,101516.31
2022-07-28T05:41:36.833Z,101537.59
2022-07-28T05:42:40.115Z,101530.97
2022-07-28T05:43:41.930Z,101502.75
2022-07-28T05:44:43.684Z,101532.66
2022-07-28T05:45:46.713Z,101496.50
2022-07-28T05:46:48.592Z,101519.66
2022-07-28T05:47:52.917Z,101535.31
2022-07-28T05:48:55.032Z,101515.53
2022-07-28T05:50:01.237Z,101534.94
2022-07-28T05:51:03.129Z,101521.31
2022-07-28T05:52:05.099Z,101522.50
2022-07-28T05:53:06.941Z,101534.78
2022-07-28T05:54:08.728Z,101523.66
2022-07-28T05:55:10.779Z,101530.38
2022-07-28T05:56:12.721Z,101527.97
2022-07-28T05:57:15.226Z,101538.09
2022-07-28T05:58:21.588Z,101536.41
2022-07-28T05:59:23.374Z,101524.03
2022-07-28T06:00:25.183Z,101525.25
2022-07-28T06:01:26.992Z,101534.59
2022-07-28T06:02:28.932Z,101511.34
2022-07-28T06:03:32.772Z,101519.19
2022-07-28T06:04:35.335Z,101521.16
2022-07-28T06:05:37.515Z,101527.41
2022-07-28T06:06:59.361Z,101516.41
2022-07-28T06:08:01.230Z,101518.44
2022-07-28T06:09:03.099Z,101517.59
2022-07-28T06:10:05.872Z,101524.53
2022-07-28T06:11:22.146Z,101523.88
2022-07-28T06:12:24.852Z,101523.50
2022-07-28T06:13:26.672Z,101529.88
2022-07-28T06:14:28.500Z,101524.16
2022-07-28T06:15:30.322Z,101537.00
2022-07-28T06:16:32.193Z,101531.09
2022-07-28T06:17:34.057Z,101522.47
2022-07-28T06:18:35.815Z,101514.88
2022-07-28T06:19:37.707Z,101537.84
2022-07-28T06:20:39.679Z,101512.00
2022-07-28T06:21:41.550Z,101526.06
2022-07-28T06:22:45.260Z,101537.00
2022-07-28T06:23:47.059Z,101508.34
2022-07-28T06:24:48.906Z,101513.03
2022-07-28T06:25:52.223Z,101539.69
2022-07-28T06:26:54.269Z,101505.78
2022-07-28T06:27:58.446Z,101521.53
2022-07-28T06:29:00.292Z,101532.78
2022-07-28T06:30:02.083Z,101509.66
2022-07-28T06:31:04.086Z,101520.13
2022-07-28T06:32:06.160Z,101530.78
2022-07-28T06:33:08.025Z,101528.41
2022-07-28T06:34:10.017Z,101520.97
2022-07-28T06:35:14.865Z,101517.13
2022-07-28T06:36:16.687Z,101524.69
2022-07-28T06:37:18.522Z,101530.13
2022-07-28T06:38:20.789Z,101548.69
2022-07-28T06:39:22.739Z,101539.41
2022-07-28T06:40:24.740Z,101532.31
2022-07-28T06:41:26.623Z,101527.41
2022-07-28T06:42:28.705Z,101517.84
2022-07-28T06:43:30.844Z,101537.72
2022-07-28T06:44:54.960Z,101551.22
2022-07-28T06:45:54.849Z,101501.22
2022-07-28T06:46:58.395Z,101544.47
2022-07-28T06:48:00.376Z,101546.16
2022-07-28T06:49:04.002Z,101527.97
2022-07-28T06:50:07.316Z,101532.66
2022-07-28T06:51:28.724Z,101542.06
2022-07-28T06:52:30.621Z,101547.00
2022-07-28T06:53:33.757Z,101543.94
2022-07-28T06:54:37.132Z,101526.38
2022-07-28T06:55:39.055Z,101547.38
2022-07-28T06:56:43.133Z,101549.53
2022-07-28T06:57:51.717Z,101550.38
2022-07-28T06:58:53.483Z,101544.34
2022-07-28T06:59:55.458Z,101537.44
2022-07-28T07:00:57.706Z,101550.56
2022-07-28T07:02:02.075Z,101551.56
2022-07-28T07:03:04.105Z,101545.13
2022-07-28T07:04:08.294Z,101527.13
2022-07-28T07:05:11.715Z,101536.41
2022-07-28T07:06:13.567Z,101543.16
2022-07-28T07:07:17.135Z,101541.16
2022-07-28T07:08:20.937Z,101548.22
2022-07-28T07:09:22.823Z,101551.56
2022-07-28T07:10:24.682Z,101536.19
2022-07-28T07:11:27.265Z,101519.19
2022-07-28T07:12:29.131Z,101536.41
2022-07-28T07:13:31.017Z,101546.88
2022-07-28T07:14:33.149Z,101526.28
2022-07-28T07:15:35.167Z,101536.41
2022-07-28T07:16:37.422Z,101552.44
2022-07-28T07:17:39.385Z,101532.16
2022-07-28T07:18:41.227Z,101534.41
2022-07-28T07:19:43.026Z,101543.81
2022-07-28T07:20:44.831Z,101514.28
2022-07-28T07:21:47.703Z,101537.72
2022-07-28T07:22:50.632Z,101558.03
2022-07-28T07:23:52.407Z,101524.59
2022-07-28T07:24:57.185Z,101529.47
2022-07-28T07:25:59.928Z,101541.16
2022-07-28T07:27:01.740Z,101548.94
2022-07-28T07:28:03.750Z,101539.41
2022-07-28T07:29:06.639Z,101532.84
2022-07-28T07:30:09.852Z,101547.75
2022-07-28T07:31:11.830Z,101547.19
2022-07-28T07:32:13.768Z,101516.84
2022-07-28T07:33:15.634Z,101544.00
2022-07-28T07:34:17.810Z,101560.72
2022-07-28T07:35:19.906Z,101535.88
2022-07-28T07:36:22.531Z,101544.00
2022-07-28T07:37:24.891Z,101513.47
2022-07-28T07:38:29.279Z,101559.91
2022-07-28T07:39:31.428Z,101522.78
2022-07-28T07:40:33.698Z,101543.16
2022-07-28T07:41:35.637Z,101527.97
2022-07-28T07:42:37.827Z,101529.66
2022-07-28T07:43:42.333Z,101545.56
2022-07-28T07:44:50.124Z,101555.97
2022-07-28T07:45:52.343Z,101532.53
2022-07-28T07:46:54.191Z,101556.53
2022-07-28T07:47:56.175Z,101538.44
2022-07-28T07:48:58.186Z,101541.53
2022-07-28T07:50:03.965Z,101563.66
2022-07-28T07:51:08.801Z,101565.34
2022-07-28T07:52:16.917Z,101540.50
2022-07-28T07:53:18.704Z,101569.72
2022-07-28T07:54:21.893Z,101575.69
2022-07-28T07:55:23.705Z,101537.84
2022-07-28T07:56:25.801Z,101552.53
2022-07-28T07:57:27.655Z,101567.75
2022-07-28T07:58:29.628Z,101555.09
2022-07-28T07:59:31.453Z,101557.97
2022-07-28T08:00:33.712Z,101572.81
2022-07-28T08:01:35.602Z,101567.25
2022-07-28T08:02:43.520Z,101570.25
2022-07-28T08:03:46.341Z,101556.03
2022-07-28T08:04:52.098Z,101572.59
2022-07-28T08:05:56.715Z,101546.66
2022-07-28T08:06:59.391Z,101562.19
2022-07-28T08:08:01.799Z,101569.44
2022-07-28T08:09:04.049Z,101543.28
2022-07-28T08:10:07.453Z,101549.66
2022-07-28T08:11:11.240Z,101566.88
2022-07-28T08:12:13.034Z,101579.06
2022-07-28T08:13:15.034Z,101552.75
2022-07-28T08:14:17.820Z,101556.28
2022-07-28T08:15:20.048Z,101546.66
2022-07-28T08:16:22.114Z,101544.97
2022-07-28T08:17:26.204Z,101571.13
2022-07-28T08:18:28.306Z,101557.78
2022-07-28T08:19:30.423Z,101550.38
2022-07-28T08:20:32.363Z,101560.50
2022-07-28T08:21:34.196Z,101565.06
2022-07-28T08:22:47.614Z,101568.06
2022-07-28T08:23:49.532Z,101531.81
2022-07-28T08:24:51.648Z,101575.31
2022-07-28T08:25:54.985Z,101553.41
2022-07-28T08:26:56.916Z,101581.59
2022-07-28T08:27:58.857Z,101567.25
2022-07-28T08:29:01.546Z,101574.00
2022-07-28T08:30:04.509Z,101585.34
2022-07-28T08:31:06.366Z,101559.47
2022-07-28T08:32:08.307Z,101574.00
2022-07-28T08:33:10.325Z,101555.09
2022-07-28T08:34:26.425Z,101574.34
2022-07-28T08:35:35.963Z,101566.88
2022-07-28T08:36:38.073Z,101565.88
2022-07-28T08:37:41.032Z,101566.22
2022-07-28T08:38:43.055Z,101551.06
2022-07-28T08:39:45.028Z,101565.19
2022-07-28T08:40:50.247Z,101574.00
2022-07-28T08:41:59.108Z,101575.69
2022-07-28T08:43:15.543Z,101568.28
2022-07-28T08:44:25.009Z,101577.50
2022-07-28T08:45:28.914Z,101567.91
2022-07-28T08:46:38.125Z,101567.75
2022-07-28T08:47:58.774Z,101569.59
2022-07-28T08:49:08.836Z,101555.38
2022-07-28T08:50:13.828Z,101574.94
2022-07-28T08:51:16.038Z,101551.34
2022-07-28T08:52:21.144Z,101561.34
2022-07-28T08:53:23.220Z,101551.81
2022-07-28T08:54:29.417Z,101543.09
2022-07-28T08:55:32.348Z,101566.88
2022-07-28T08:56:39.867Z,101568.56
2022-07-28T08:57:50.977Z,101559.78
2022-07-28T08:58:53.423Z,101557.06
2022-07-28T08:59:56.312Z,101563.16
2022-07-28T09:00:58.805Z,101571.56
2022-07-28T09:02:00.937Z,101557.06
2022-07-28T09:03:04.709Z,101578.69
2022-07-28T09:04:09.736Z,101579.56
2022-07-28T09:05:12.280Z,101560.81
2022-07-28T09:06:14.616Z,101587.50
2022-07-28T09:07:16.990Z,101576.88
2022-07-28T09:08:21.561Z,101589.16
2022-07-28T09:09:23.698Z,101554.59
2022-07-28T09:10:26.033Z,101564.72
2022-07-28T09:11:28.671Z,101560.81
2022-07-28T09:12:30.677Z,101571.94
2022-07-28T09:13:32.706Z,101560.13
2022-07-28T09:14:35.155Z,101580.38
2022-07-28T09:15:37.849Z,101566.03
2022-07-28T09:16:39.835Z,101584.13
2022-07-28T09:17:42.801Z,101577.38
2022-07-28T09:18:44.788Z,101592.75
2022-07-28T09:19:46.843Z,101591.22
2022-07-28T09:20:48.702Z,101589.91
2022-07-28T09:21:50.639Z,101572.84
2022-07-28T09:23:03.645Z,101594.59
2022-07-28T09:24:05.959Z,101577.38
2022-07-28T09:25:18.717Z,101598.63
2022-07-28T09:26:20.872Z,101540.94
2022-07-28T09:27:22.652Z,101571.66
2022-07-28T09:28:24.696Z,101595.47
2022-07-28T09:29:26.521Z,101589.25
2022-07-28T09:30:34.151Z,101585.69
2022-07-28T09:31:56.940Z,101596.56
2022-07-28T09:33:42.474Z,101586.38
2022-07-28T09:34:48.562Z,101594.66
2022-07-28T09:35:59.737Z,101600.44
2022-07-28T09:37:04.408Z,101594.44
2022-07-28T09:38:06.237Z,101594.22
2022-07-28T09:39:08.736Z,101597.59
2022-07-28T09:40:13.177Z,101565.56
2022-07-28T09:41:18.837Z,101597.31
2022-07-28T09:42:21.658Z,101596.94
2022-07-28T09:43:43.714Z,101610.13
2022-07-28T09:45:05.877Z,101612.47
2022-07-28T09:46:15.201Z,101606.91
2022-07-28T09:47:28.159Z,101607.72
2022-07-28T09:48:30.351Z,101595.91
2022-07-28T09:49:43.442Z,101607.78
2022-07-28T09:50:46.535Z,101612.47
2022-07-28T09:52:04.221Z,101613.06
2022-07-28T09:53:27.515Z,101611.13
2022-07-28T09:54:30.569Z,101613.84
2022-07-28T09:55:35.492Z,101612.84
2022-07-28T09:56:39.821Z,101613.50
2022-07-28T09:57:45.770Z,101615.75
2022-07-28T09:58:59.439Z,101626.03
2022-07-28T10:00:01.350Z,101615.19
2022-07-28T10:01:21.181Z,101625.03
2022-07-28T10:02:25.489Z,101622.31
2022-07-28T10:03:28.297Z,101604.78
2022-07-28T10:04:36.342Z,101620.81
2022-07-28T10:05:41.305Z,101617.09
2022-07-28T10:06:45.073Z,101622.66
2022-07-28T10:07:50.612Z,101628.47
2022-07-28T10:08:55.856Z,101628.09
2022-07-28T10:10:05.240Z,101623.53
2022-07-28T10:11:08.087Z,101608.75
2022-07-28T10:12:17.478Z,101617.91
2022-07-28T10:13:19.352Z,101626.03
2022-07-28T10:14:32.624Z,101634.19
2022-07-28T10:15:52.898Z,101610.50
2022-07-28T10:16:54.959Z,101617.91
2022-07-28T10:17:56.951Z,101618.94
2022-07-28T10:19:01.121Z,101626.72
2022-07-28T10:20:06.882Z,101596.53
2022-07-28T10:21:13.357Z,101625.88
2022-07-28T10:22:17.948Z,101606.75
2022-07-28T10:23:21.523Z,101621.28
2022-07-28T10:24:26.919Z,101595.16
2022-07-28T10:25:30.698Z,101613.88
2022-07-28T10:26:38.474Z,101618.56
2022-07-28T10:27:41.648Z,101603.38
2022-07-28T10:28:51.976Z,101624.69
2022-07-28T10:30:02.308Z,101639.56
2022-07-28T10:31:08.902Z,101623.00
2022-07-28T10:32:10.741Z,101642.94
2022-07-28T10:33:16.322Z,101615.19
2022-07-28T10:34:24.707Z,101629.63
2022-07-28T10:35:27.650Z,101624.00
2022-07-28T10:36:32.051Z,101628.22
2022-07-28T10:37:58.361Z,101623.66
2022-07-28T10:39:05.340Z,101621.56
2022-07-28T10:40:11.070Z,101631.78
2022-07-28T10:41:15.144Z,101628.91
2022-07-28T10:42:17.766Z,101617.38
2022-07-28T10:43:20.597Z,101637.19
2022-07-28T10:44:23.295Z,101636.88
2022-07-28T10:45:41.960Z,101629.75
2022-07-28T10:46:49.935Z,101624.00
2022-07-28T10:47:52.270Z,101625.34
2022-07-28T10:48:56.865Z,101620.47
2022-07-28T10:49:58.800Z,101643.66
2022-07-28T10:51:01.880Z,101628.22
2022-07-28T10:52:15.459Z,101628.91
2022-07-28T10:53:40.229Z,101629.34
2022-07-28T10:55:00.128Z,101632.78
2022-07-28T10:56:18.860Z,101622.59
2022-07-28T10:57:22.848Z,101622.59
2022-07-28T10:58:36.353Z,101639.19
2022-07-28T10:59:58.535Z,101639.84
2022-07-28T11:01:06.040Z,101636.94
2022-07-28T11:02:08.626Z,101631.78
2022-07-28T11:03:13.524Z,101636.50
2022-07-28T11:04:48.161Z,101646.28
2022-07-28T11:05:50.209Z,101631.41
2022-07-28T11:06:52.205Z,101639.22
2022-07-28T11:07:54.316Z,101623.66
2022-07-28T11:08:57.967Z,101641.91
2022-07-28T11:10:16.199Z,101645.63
2022-07-28T11:11:47.228Z,101640.50
2022-07-28T11:12:51.283Z,101647.78
2022-07-28T11:13:53.275Z,101648.50
2022-07-28T11:14:55.378Z,101645.13
2022-07-28T11:16:15.916Z,101646.66
2022-07-28T11:17:23.931Z,101625.00
2022-07-28T11:18:26.724Z,101642.91
2022-07-28T11:20:24.657Z,101622.81
2022-07-28T11:21:16.528Z,101634.41
2022-07-28T11:22:19.149Z,101644.25
2022-07-28T11:23:46.774Z,101644.03
2022-07-28T11:25:19.680Z,101643.22
2022-07-28T11:26:27.613Z,101637.41
2022-07-28T11:28:01.587Z,101629.81
2022-07-28T11:29:04.172Z,101632.00
2022-07-28T11:30:27.637Z,101635.72
2022-07-28T11:31:44.622Z,101652.00
2022-07-28T11:32:53.719Z,101646.94
2022-07-28T11:33:56.648Z,101649.00
2022-07-28T11:35:08.079Z,101637.53
2022-07-28T11:36:09.950Z,101644.78
2022-07-28T11:37:15.054Z,101632.22
2022-07-28T11:38:17.355Z,101639.53
2022-07-28T11:39:23.750Z,101623.00
2022-07-28T11:40:38.843Z,101642.25
2022-07-28T11:41:40.628Z,101646.44
2022-07-28T11:42:42.429Z,101646.00
2022-07-28T11:43:44.666Z,101645.13
2022-07-28T11:44:47.235Z,101646.00
2022-07-28T11:46:11.289Z,101646.44
2022-07-28T11:47:24.701Z,101651.06
2022-07-28T11:48:27.363Z,101643.28
2022-07-28T11:49:29.333Z,101641.63
2022-07-28T11:50:31.699Z,101657.66
2022-07-28T11:51:38.832Z,101637.88
2022-07-28T11:52:55.897Z,101659.19
2022-07-28T11:53:58.159Z,101660.22
2022-07-28T11:55:01.494Z,101647.84
2022-07-28T11:56:05.740Z,101664.31
2022-07-28T11:57:12.191Z,101659.72
2022-07-28T11:58:25.763Z,101658.53
2022-07-28T11:59:39.953Z,101639.94
2022-07-28T12:00:41.724Z,101653.47
2022-07-28T12:01:53.287Z,101651.78
2022-07-28T12:02:56.592Z,101658.53
2022-07-28T12:03:59.465Z,101647.22
2022-07-28T12:05:05.905Z,101669.75
2022-07-28T12:06:12.294Z,101664.31
2022-07-28T12:07:16.223Z,101635.34
2022-07-28T12:08:18.999Z,101649.06
2022-07-28T12:09:37.055Z,101660.41
2022-07-28T12:10:54.447Z,101649.72
2022-07-28T12:11:56.946Z,101636.66
2022-07-28T12:13:07.738Z,101646.00
2022-07-28T12:14:11.705Z,101655.81
2022-07-28T12:15:17.632Z,101650.56
2022-07-28T12:16:19.451Z,101646.03
2022-07-28T12:17:23.188Z,101646.69
2022-07-28T12:18:25.369Z,101662.28
2022-07-28T12:19:32.805Z,101668.72
2022-07-28T12:20:44.780Z,101653.31
2022-07-28T12:21:53.935Z,101671.72
2022-07-28T12:23:00.221Z,101655.50
2022-07-28T12:24:02.115Z,101669.75
2022-07-28T12:25:04.347Z,101655.84
2022-07-28T12:26:31.327Z,101658.53